Time;durP1;ratioP1;P1;durP2;ratioP2;P2;SDS_P1;SDS_P2;PMS_P1;PMS_P2;Temp;Humidity;BMP_temperature;BMP_pressure;BME280_temperature;BME280_humidity;BME280_pressure;Samples;Min_cycle;Max_cycle;Signal;HPM_P1;HPM_P2
2023/07/02 00:01:50;;;;;;;;;;;20.30;60.70;;;16.45;100.00;95146.91;4955726;28;19929;-45
2023/07/02 00:04:16;;;;;;;;;;;20.30;60.80;;;16.45;100.00;95153.06;4956503;28;20020;-45
2023/07/02 00:06:49;;;;;;;;;;;20.30;60.80;;;16.43;100.00;95145.34;4955605;28;19910;-45
2023/07/02 00:09:15;;;;;;;;;;;20.30;60.80;;;16.46;100.00;95151.22;4956360;28;19949;-45
2023/07/02 00:11:45;;;;;;;;;;;20.30;60.80;;;16.42;100.00;95151.81;4971764;28;20380;-48
2023/07/02 00:14:13;;;;;;;;;;;20.30;60.70;;;16.42;100.00;95153.69;4953979;28;19910;-46
2023/07/02 00:16:45;;;;;;;;;;;20.30;60.70;;;16.39;100.00;95144.38;4956771;28;20316;-46
2023/07/02 00:19:13;;;;;;;;;;;20.30;60.90;;;16.41;100.00;95150.22;4953387;28;19918;-50
2023/07/02 00:21:40;;;;;;;;;;;20.30;60.90;;;16.41;100.00;95147.53;4956688;28;19982;-47
2023/07/02 00:24:09;;;;;;;;;;;20.30;60.90;;;16.45;100.00;95149.59;4955499;28;20360;-46
2023/07/02 00:26:37;;;;;;;;;;;20.30;60.90;;;16.47;100.00;95142.81;4956705;28;19916;-46
2023/07/02 00:29:04;;;;;;;;;;;20.30;60.90;;;16.51;100.00;95146.44;4955994;28;19910;-45
2023/07/02 00:31:30;;;;;;;;;;;20.40;60.90;;;16.55;100.00;95147.44;4955464;28;19917;-46
2023/07/02 00:33:55;;;;;;;;;;;20.40;60.90;;;16.59;100.00;95143.00;4956226;28;19918;-45
2023/07/02 00:36:21;;;;;;;;;;;20.40;60.80;;;16.57;100.00;95139.81;4958402;28;19913;-47
2023/07/02 00:38:49;;;;;;;;;;;20.40;60.80;;;16.60;100.00;95147.25;4958562;28;19957;-48
2023/07/02 00:41:16;;;;;;;;;;;20.50;60.80;;;16.60;100.00;95146.47;4955707;28;19910;-45
2023/07/02 00:43:44;;;;;;;;;;;20.50;60.70;;;16.55;100.00;95150.13;4953734;28;19914;-44
2023/07/02 00:46:19;;;;;;;;;;;20.40;60.60;;;16.46;100.00;95157.38;4956120;28;19914;-46
2023/07/02 00:48:54;;;;;;;;;;;20.30;60.80;;;16.49;100.00;95164.03;4954846;28;19910;-45
2023/07/02 00:51:26;;;;;;;;;;;20.20;61.70;;;16.42;100.00;95161.75;4955994;28;19917;-44
2023/07/02 00:53:56;;;;;;;;;;;20.10;61.10;;;16.32;100.00;95168.22;4955516;28;19984;-45
2023/07/02 00:56:23;;;;;;;;;;;20.00;61.40;;;16.26;100.00;95166.75;4950763;28;20017;-44
2023/07/02 00:58:53;;;;;;;;;;;20.00;61.50;;;16.15;100.00;95168.94;4955616;28;19916;-45
2023/07/02 01:01:25;;;;;;;;;;;19.90;62.40;;;16.08;100.00;95165.91;4953840;28;19949;-47
2023/07/02 01:04:01;;;;;;;;;;;19.80;61.80;;;16.02;100.00;95169.06;4955627;28;19925;-47
2023/07/02 01:06:31;;;;;;;;;;;19.70;61.90;;;15.93;100.00;95166.31;4959312;28;20283;-45
2023/07/02 01:09:06;;;;;;;;;;;19.70;62.10;;;15.92;100.00;95170.09;4962643;28;20490;-43
2023/07/02 01:11:47;;;;;;;;;;;19.60;62.20;;;15.82;100.00;95167.66;4958349;28;19996;-46
2023/07/02 01:14:34;;;;;;;;;;;19.60;62.40;;;15.81;100.00;95164.19;4954511;28;19910;-47
2023/07/02 01:17:03;;;;;;;;;;;19.60;62.50;;;15.74;100.00;95169.22;4954607;28;19914;-43
2023/07/02 01:20:00;;;;;;;;;;;19.50;62.70;;;15.72;100.00;95163.34;4950954;28;19918;-44
2023/07/02 01:22:28;;;;;;;;;;;19.50;62.80;;;15.69;100.00;95161.28;4951137;28;19942;-46
2023/07/02 01:24:55;;;;;;;;;;;19.50;63.00;;;15.71;100.00;95159.88;4944824;28;19910;-44
2023/07/02 01:27:21;;;;;;;;;;;19.40;63.10;;;15.70;100.00;95163.66;4941962;28;19913;-46
2023/07/02 01:29:51;;;;;;;;;;;19.40;63.20;;;15.65;100.00;95165.66;4945405;28;20284;-45
2023/07/02 01:32:17;;;;;;;;;;;19.40;63.30;;;15.63;100.00;95157.09;4939774;28;19921;-44
2023/07/02 01:34:48;;;;;;;;;;;19.40;63.50;;;15.66;100.00;95159.16;4944454;28;19914;-43
2023/07/02 01:37:19;;;;;;;;;;;19.40;63.70;;;15.64;100.00;95158.69;4952283;28;20270;-47
2023/07/02 01:39:45;;;;;;;;;;;19.30;63.70;;;15.59;100.00;95162.28;4943244;28;19915;-46
2023/07/02 01:42:20;;;;;;;;;;;19.40;64.00;;;15.56;100.00;95162.91;4949843;28;20443;-43
2023/07/02 01:44:51;;;;;;;;;;;19.30;64.10;;;15.57;100.00;95155.63;4954760;28;19996;-48
2023/07/02 01:47:19;;;;;;;;;;;19.40;64.40;;;15.62;100.00;95163.56;4942008;28;20017;-47
2023/07/02 01:49:45;;;;;;;;;;;19.30;64.30;;;15.60;100.00;95160.41;4953896;28;19910;-45
2023/07/02 01:52:11;;;;;;;;;;;19.30;65.10;;;15.56;100.00;95162.91;4947281;28;19914;-44
2023/07/02 01:54:36;;;;;;;;;;;19.30;64.50;;;15.59;100.00;95167.66;4946647;28;20001;-44
2023/07/02 01:57:03;;;;;;;;;;;19.30;64.50;;;15.55;100.00;95171.28;4947963;28;19916;-48
2023/07/02 01:59:29;;;;;;;;;;;19.40;64.70;;;15.54;100.00;95173.13;4948541;28;20427;-44
2023/07/02 02:01:55;;;;;;;;;;;19.40;64.90;;;15.53;100.00;95178.84;4958093;28;20005;-45
2023/07/02 02:04:21;;;;;;;;;;;19.40;64.90;;;15.50;100.00;95172.19;4941651;28;20297;-48
2023/07/02 02:06:46;;;;;;;;;;;19.30;65.00;;;15.50;100.00;95180.22;4953549;28;19914;-47
2023/07/02 02:09:12;;;;;;;;;;;19.40;65.10;;;15.49;100.00;95182.13;4954310;28;19979;-45
2023/07/02 02:11:44;;;;;;;;;;;19.40;65.20;;;15.50;100.00;95177.53;4954217;28;19910;-44
2023/07/02 02:14:10;;;;;;;;;;;19.40;65.30;;;15.55;100.00;95185.47;4953499;28;19914;-44
2023/07/02 02:16:36;;;;;;;;;;;19.40;65.30;;;15.56;100.00;95188.97;4954581;28;19917;-47
2023/07/02 02:19:02;;;;;;;;;;;19.40;65.30;;;15.53;100.00;95189.56;4953398;28;19995;-48
2023/07/02 02:21:28;;;;;;;;;;;19.40;65.30;;;15.53;100.00;95187.66;4954513;28;20353;-48
2023/07/02 02:23:54;;;;;;;;;;;19.40;65.30;;;15.51;100.00;95187.16;4954115;28;20284;-46
2023/07/02 02:26:22;;;;;;;;;;;19.40;65.40;;;15.53;100.00;95189.56;4953747;28;20421;-45
2023/07/02 02:28:48;;;;;;;;;;;19.40;65.40;;;15.49;100.00;95181.34;4953963;28;19910;-45
2023/07/02 02:31:15;;;;;;;;;;;19.40;65.50;;;15.49;100.00;95182.13;4953126;28;19910;-46
2023/07/02 02:33:41;;;;;;;;;;;19.40;65.50;;;15.52;100.00;95183.41;4952707;28;19925;-45
2023/07/02 02:36:07;;;;;;;;;;;19.40;66.40;;;15.55;100.00;95187.38;4950322;28;20273;-47
2023/07/02 02:38:34;;;;;;;;;;;19.40;65.50;;;15.53;100.00;95187.66;4950207;28;19930;-45
2023/07/02 02:41:00;;;;;;;;;;;19.40;65.60;;;15.49;100.00;95186.69;4954215;28;19945;-45
2023/07/02 02:43:26;;;;;;;;;;;19.40;65.50;;;15.53;100.00;95197.63;4952592;28;19950;-46
2023/07/02 02:45:52;;;;;;;;;;;19.30;65.50;;;15.45;100.00;95191.09;4954020;28;20396;-47
2023/07/02 02:48:17;;;;;;;;;;;19.40;65.60;;;15.47;100.00;95181.63;4954615;28;19910;-45
2023/07/02 02:50:43;;;;;;;;;;;19.40;65.60;;;15.46;100.00;95190.78;4960836;28;20009;-46
2023/07/02 02:53:10;;;;;;;;;;;19.40;65.60;;;15.44;100.00;95189.50;4953646;28;19910;-46
2023/07/02 02:55:37;;;;;;;;;;;19.40;65.60;;;15.43;100.00;95194.06;4953017;28;19917;-44
2023/07/02 02:58:03;;;;;;;;;;;19.40;65.70;;;15.40;100.00;95193.91;4953415;28;19910;-47
2023/07/02 03:00:29;;;;;;;;;;;19.30;65.70;;;15.43;100.00;95195.97;4952312;28;20530;-45
2023/07/02 03:02:55;;;;;;;;;;;19.30;65.70;;;15.41;100.00;95203.53;4953226;28;19910;-46
2023/07/02 03:05:24;;;;;;;;;;;19.30;65.70;;;15.41;100.00;95198.16;4952523;28;19913;-49
2023/07/02 03:07:51;;;;;;;;;;;19.30;65.80;;;15.38;100.00;95202.22;4951450;28;19910;-50
2023/07/02 03:10:17;;;;;;;;;;;19.30;65.80;;;15.38;100.00;95209.50;4953784;28;20012;-47
2023/07/02 03:12:43;;;;;;;;;;;19.30;65.80;;;15.38;100.00;95196.88;4952024;28;19916;-45
2023/07/02 03:15:09;;;;;;;;;;;19.30;65.80;;;15.37;100.00;95206.03;4953514;28;19913;-45
2023/07/02 03:17:35;;;;;;;;;;;19.30;65.80;;;15.33;100.00;95210.41;4952826;28;20015;-45
2023/07/02 03:20:07;;;;;;;;;;;19.20;65.90;;;15.34;100.00;95212.00;4952432;28;19910;-46
2023/07/02 03:22:33;;;;;;;;;;;19.20;65.80;;;15.31;100.00;95209.13;4951742;28;19910;-45
2023/07/02 03:25:00;;;;;;;;;;;19.20;65.90;;;15.32;100.00;95214.19;4952065;28;20210;-45
2023/07/02 03:27:26;;;;;;;;;;;19.20;65.80;;;15.27;100.00;95223.16;4952666;28;19910;-45
2023/07/02 03:29:52;;;;;;;;;;;19.20;65.90;;;15.27;100.00;95211.63;4953235;28;20373;-49
2023/07/02 03:32:18;;;;;;;;;;;19.20;65.90;;;15.25;100.00;95214.59;4951308;28;19914;-45
2023/07/02 03:34:44;;;;;;;;;;;19.20;65.90;;;15.26;100.00;95218.88;4952169;28;19921;-45
2023/07/02 03:37:09;;;;;;;;;;;19.20;65.90;;;15.22;100.00;95217.09;4951752;28;19914;-46
2023/07/02 03:39:35;;;;;;;;;;;19.20;66.00;;;15.21;100.00;95220.88;4953121;28;19956;-47
2023/07/02 03:42:01;;;;;;;;;;;19.20;66.00;;;15.16;100.00;95227.16;4952445;29;19910;-47
2023/07/02 03:44:27;;;;;;;;;;;19.20;66.10;;;15.16;100.00;95226.34;4952725;29;19921;-46
2023/07/02 03:46:54;;;;;;;;;;;19.20;66.20;;;15.16;100.00;95227.16;4953094;28;20056;-46
2023/07/02 03:49:19;;;;;;;;;;;19.20;66.30;;;15.13;100.00;95226.97;4952392;28;19972;-46
2023/07/02 03:51:45;;;;;;;;;;;19.10;66.30;;;15.17;100.00;95230.66;4952795;29;19946;-47
2023/07/02 03:54:11;;;;;;;;;;;19.10;66.30;;;15.21;100.00;95228.94;4952004;28;19917;-46
2023/07/02 03:56:36;;;;;;;;;;;19.10;66.20;;;15.23;100.00;95235.59;4953086;28;19972;-45
2023/07/02 03:59:02;;;;;;;;;;;19.10;66.10;;;15.21;100.00;95234.31;4952552;29;20005;-49
2023/07/02 04:01:28;;;;;;;;;;;19.10;66.00;;;15.22;100.00;95238.56;4951742;28;19921;-51
2023/07/02 04:03:56;;;;;;;;;;;19.10;66.00;;;15.19;100.00;95241.84;4952769;28;19918;-50
2023/07/02 04:06:22;;;;;;;;;;;19.10;65.90;;;15.17;100.00;95242.16;4950658;29;19964;-48
2023/07/02 04:08:48;;;;;;;;;;;19.10;65.80;;;15.20;100.00;95248.81;4952464;28;19941;-45
2023/07/02 04:11:15;;;;;;;;;;;19.10;65.70;;;15.18;100.00;95249.09;4952945;28;19957;-47
2023/07/02 04:13:41;;;;;;;;;;;19.10;65.70;;;15.18;100.00;95251.78;4951218;28;20013;-46
2023/07/02 04:16:07;;;;;;;;;;;19.10;65.60;;;15.12;100.00;95247.63;4952850;28;20484;-49
2023/07/02 04:18:32;;;;;;;;;;;19.10;65.60;;;15.13;100.00;95253.78;4951836;28;19917;-48
2023/07/02 04:20:58;;;;;;;;;;;19.20;65.60;;;15.09;100.00;95250.13;4952590;28;19910;-49
2023/07/02 04:23:25;;;;;;;;;;;19.10;65.50;;;15.12;100.00;95249.53;4952739;28;19917;-46
2023/07/02 04:25:51;;;;;;;;;;;19.10;65.50;;;15.12;100.00;95246.84;4951497;28;19916;-48
2023/07/02 04:28:17;;;;;;;;;;;19.10;65.50;;;15.15;100.00;95255.06;4952440;28;19914;-47
2023/07/02 04:30:43;;;;;;;;;;;19.10;65.40;;;15.15;100.00;95249.72;4951976;28;19914;-45
2023/07/02 04:33:09;;;;;;;;;;;19.10;65.30;;;15.13;100.00;95257.25;4953031;28;19964;-45
2023/07/02 04:35:34;;;;;;;;;;;19.20;65.30;;;15.13;100.00;95262.63;4956046;28;20005;-47
2023/07/02 04:38:01;;;;;;;;;;;19.20;65.20;;;15.13;100.00;95256.47;4955396;28;19997;-49
2023/07/02 04:40:27;;;;;;;;;;;19.20;65.10;;;15.09;100.00;95258.16;4956357;28;19914;-47
2023/07/02 04:42:57;;;;;;;;;;;19.20;65.90;;;15.11;100.00;95261.34;4954889;28;20017;-45
2023/07/02 04:45:25;;;;;;;;;;;19.20;65.00;;;15.09;100.00;95261.63;4956368;28;19949;-46
2023/07/02 04:47:51;;;;;;;;;;;19.20;65.00;;;15.07;100.00;95266.50;4954315;28;19917;-47
2023/07/02 04:50:18;;;;;;;;;;;19.20;64.90;;;15.09;100.00;95258.16;4955295;28;20003;-49
2023/07/02 04:52:44;;;;;;;;;;;19.20;64.80;;;15.11;100.00;95262.16;4955982;28;19914;-45
2023/07/02 04:55:10;;;;;;;;;;;19.20;64.80;;;15.11;100.00;95269.41;4955062;28;20375;-46
2023/07/02 04:57:36;;;;;;;;;;;19.20;64.70;;;15.18;100.00;95264.41;4955713;28;19917;-46
2023/07/02 05:00:03;;;;;;;;;;;19.20;64.70;;;15.23;100.00;95272.34;4955512;28;20304;-49
2023/07/02 05:02:29;;;;;;;;;;;19.30;64.70;;;15.23;100.00;95269.66;4956133;28;19910;-46
2023/07/02 05:04:55;;;;;;;;;;;19.40;64.60;;;15.27;100.00;95276.81;4971765;23;19968;-46
2023/07/02 05:07:21;;;;;;;;;;;19.50;64.50;;;15.36;100.00;95279.59;4957157;28;19922;-46
2023/07/02 05:09:48;;;;;;;;;;;19.50;64.40;;;15.43;100.00;95281.84;4959601;28;20380;-45
2023/07/02 05:12:14;;;;;;;;;;;19.60;64.30;;;15.46;100.00;95279.34;4960337;28;19925;-46
2023/07/02 05:14:40;;;;;;;;;;;19.70;64.20;;;15.49;100.00;95278.75;4960691;28;19918;-46
2023/07/02 05:17:06;;;;;;;;;;;19.80;64.10;;;15.58;100.00;95288.78;4975654;28;19909;-46
2023/07/02 05:19:31;;;;;;;;;;;19.80;64.00;;;15.61;100.00;95288.97;4961039;28;19914;-45
2023/07/02 05:21:57;;;;;;;;;;;19.90;63.90;;;15.66;100.00;95293.41;4970469;28;19917;-47
2023/07/02 05:24:23;;;;;;;;;;;20.00;63.80;;;15.71;100.00;95291.44;4965991;28;19944;-48
2023/07/02 05:26:50;;;;;;;;;;;20.10;63.70;;;15.79;100.00;95289.91;4969537;28;19921;-47
2023/07/02 05:29:16;;;;;;;;;;;20.10;63.50;;;15.89;100.00;95295.06;4974045;28;19914;-46
2023/07/02 05:31:42;;;;;;;;;;;20.20;63.50;;;15.93;100.00;95289.88;4963400;28;19914;-46
2023/07/02 05:34:08;;;;;;;;;;;20.30;63.40;;;16.00;100.00;95292.13;4974316;28;19914;-49
2023/07/02 05:36:34;;;;;;;;;;;20.30;63.30;;;16.04;100.00;95293.88;4970279;28;19928;-52
2023/07/02 05:39:00;;;;;;;;;;;20.40;63.20;;;16.02;100.00;95298.78;4974550;28;20269;-49
2023/07/02 05:41:30;;;;;;;;;;;20.50;63.10;;;16.04;100.00;95295.78;4974728;28;19964;-51
2023/07/02 05:43:57;;;;;;;;;;;20.60;62.90;;;16.12;100.00;95292.38;4959439;28;19911;-47
2023/07/02 05:46:23;;;;;;;;;;;20.70;62.80;;;16.15;100.00;95294.44;4970104;28;20012;-46
2023/07/02 05:48:49;;;;;;;;;;;20.80;62.70;;;16.18;100.00;95291.13;4960505;28;19910;-49
2023/07/02 05:51:21;;;;;;;;;;;20.80;62.50;;;16.22;100.00;95297.47;4943756;28;20351;-48
2023/07/02 05:53:47;;;;;;;;;;;20.90;62.40;;;16.27;100.00;95297.38;4974314;28;20372;-47
2023/07/02 05:56:13;;;;;;;;;;;20.90;62.30;;;16.31;100.00;95301.00;4959671;28;19924;-51
2023/07/02 05:58:39;;;;;;;;;;;20.90;62.30;;;16.35;100.00;95303.88;4974180;28;19910;-47
2023/07/02 06:01:05;;;;;;;;;;;20.90;62.30;;;16.39;100.00;95307.56;4969045;28;20012;-46
2023/07/02 06:03:32;;;;;;;;;;;20.90;62.30;;;16.37;100.00;95307.84;4974100;28;20344;-46
2023/07/02 06:05:58;;;;;;;;;;;20.90;62.20;;;16.36;100.00;95311.66;4973096;28;20280;-46
2023/07/02 06:08:24;;;;;;;;;;;20.90;62.20;;;16.42;100.00;95317.66;4958537;28;19913;-46
2023/07/02 06:10:51;;;;;;;;;;;20.90;62.10;;;16.50;100.00;95313.44;4974054;28;19910;-47
2023/07/02 06:13:17;;;;;;;;;;;20.90;62.20;;;16.50;100.00;95316.16;4954277;28;19910;-47
2023/07/02 06:15:43;;;;;;;;;;;20.90;62.10;;;16.45;100.00;95324.31;4970017;28;20539;-47
2023/07/02 06:18:09;;;;;;;;;;;20.90;62.10;;;16.48;100.00;95321.81;4986671;28;19910;-49
2023/07/02 06:20:35;;;;;;;;;;;20.90;62.00;;;16.48;100.00;95318.34;4959364;28;19909;-51
2023/07/02 06:23:01;;;;;;;;;;;20.90;62.80;;;16.47;100.00;95333.69;4973716;28;19916;-46
2023/07/02 06:25:27;;;;;;;;;;;20.90;62.00;;;16.43;100.00;95330.03;4957896;28;19967;-48
2023/07/02 06:27:55;;;;;;;;;;;20.80;62.00;;;16.40;100.00;95342.19;4960082;28;20364;-47
2023/07/02 06:30:22;;;;;;;;;;;20.90;62.00;;;16.47;100.00;95336.38;4965302;28;19914;-46
2023/07/02 06:32:48;;;;;;;;;;;20.80;61.90;;;16.44;100.00;95342.34;4973529;28;19910;-50
2023/07/02 06:35:14;;;;;;;;;;;20.90;62.00;;;16.33;100.00;95341.81;4966005;28;19941;-48
2023/07/02 06:37:39;;;;;;;;;;;20.80;61.90;;;16.29;99.26;95345.41;4966760;28;19913;-46
2023/07/02 06:40:06;;;;;;;;;;;20.80;61.90;;;16.29;99.64;95348.09;4973171;28;19917;-48
2023/07/02 06:42:33;;;;;;;;;;;20.80;61.80;;;16.39;100.00;95345.97;4968620;28;19910;-47
2023/07/02 06:44:59;;;;;;;;;;;20.80;61.80;;;16.50;99.81;95353.78;4968581;28;20004;-46
2023/07/02 06:47:24;;;;;;;;;;;20.90;61.70;;;16.59;99.94;95355.41;4972750;28;19914;-48
2023/07/02 06:49:52;;;;;;;;;;;21.00;61.60;;;16.48;98.55;95354.06;4956836;28;20277;-45
2023/07/02 06:52:18;;;;;;;;;;;21.10;62.40;;;16.47;95.63;95349.00;4973263;28;19941;-46
2023/07/02 06:54:44;;;;;;;;;;;21.10;61.40;;;16.49;94.08;95363.75;4968291;28;19983;-48
2023/07/02 06:57:10;;;;;;;;;;;21.10;61.20;;;16.56;94.71;95358.72;4972453;28;19913;-49
2023/07/02 06:59:35;;;;;;;;;;;21.10;61.10;;;16.55;92.03;95359.84;4972946;28;19910;-47
2023/07/02 07:02:02;;;;;;;;;;;21.10;61.00;;;16.54;92.86;95368.19;4959021;28;19961;-46
2023/07/02 07:04:28;;;;;;;;;;;21.10;60.90;;;16.60;94.29;95369.66;4968394;28;19909;-49
2023/07/02 07:06:55;;;;;;;;;;;21.10;60.80;;;16.64;94.66;95373.31;4963537;28;20253;-48
2023/07/02 07:09:21;;;;;;;;;;;21.10;60.90;;;16.58;93.34;95369.97;4969250;28;19913;-47
2023/07/02 07:11:47;;;;;;;;;;;21.10;60.80;;;16.59;93.16;95370.75;4972818;28;20434;-49
2023/07/02 07:14:13;;;;;;;;;;;21.10;60.70;;;16.61;92.58;95379.31;4968271;28;19918;-46
2023/07/02 07:16:39;;;;;;;;;;;21.10;60.60;;;16.47;89.67;95376.69;4972293;28;19913;-46
2023/07/02 07:19:06;;;;;;;;;;;21.10;60.50;;;16.50;91.81;95377.97;4958672;28;19911;-46
2023/07/02 07:21:31;;;;;;;;;;;21.10;60.40;;;16.51;91.28;95374.19;4953485;28;19953;-47
2023/07/02 07:23:57;;;;;;;;;;;21.00;60.20;;;16.51;91.10;95382.25;4966215;28;19956;-48
2023/07/02 07:26:23;;;;;;;;;;;21.10;60.30;;;16.50;89.37;95376.06;4952773;28;19921;-46
2023/07/02 07:28:49;;;;;;;;;;;21.00;60.00;;;16.53;90.38;95371.97;4956010;28;19980;-46
2023/07/02 07:31:15;;;;;;;;;;;21.10;60.00;;;16.50;90.13;95373.38;4962076;28;19913;-48
2023/07/02 07:33:41;;;;;;;;;;;21.10;60.00;;;16.56;90.51;95377.53;4972137;28;20399;-47
2023/07/02 07:36:06;;;;;;;;;;;21.10;59.90;;;16.50;88.81;95372.59;4959310;28;19953;-46
2023/07/02 07:38:32;;;;;;;;;;;21.10;59.90;;;16.53;90.65;95380.06;4971270;28;19910;-46
2023/07/02 07:40:58;;;;;;;;;;;21.00;59.70;;;16.57;89.82;95379.13;4972351;28;19997;-48
2023/07/02 07:43:24;;;;;;;;;;;21.10;59.60;;;16.53;88.40;95377.38;4959752;28;20293;-47
2023/07/02 07:45:49;;;;;;;;;;;21.20;59.50;;;16.58;87.98;95378.03;4970665;28;19910;-46
2023/07/02 07:48:15;;;;;;;;;;;21.30;59.40;;;16.60;87.39;95378.50;4968673;28;19910;-46
2023/07/02 07:50:41;;;;;;;;;;;21.40;59.20;;;16.68;85.30;95378.88;4952829;28;19990;-46
2023/07/02 07:53:07;;;;;;;;;;;21.50;59.00;;;16.76;85.38;95378.16;4961445;28;19909;-47
2023/07/02 07:55:32;;;;;;;;;;;21.60;58.80;;;16.91;85.98;95382.34;4975636;28;20300;-45
2023/07/02 07:57:58;;;;;;;;;;;21.80;58.80;;;17.00;85.71;95375.91;4971519;28;19917;-47
2023/07/02 08:00:25;;;;;;;;;;;21.90;58.60;;;16.98;83.89;95378.09;4967141;28;19936;-46
2023/07/02 08:02:52;;;;;;;;;;;21.90;58.40;;;17.07;83.24;95378.94;4949072;28;19910;-48
2023/07/02 08:05:18;;;;;;;;;;;22.00;58.30;;;17.14;82.59;95378.47;4958618;28;20295;-47
2023/07/02 08:07:43;;;;;;;;;;;22.20;58.00;;;17.28;82.54;95378.38;4962160;28;19917;-47
2023/07/02 08:10:10;;;;;;;;;;;22.30;58.00;;;17.31;80.81;95385.84;4975242;28;19910;-47
2023/07/02 08:12:36;;;;;;;;;;;22.30;57.80;;;17.52;81.24;95383.38;4970330;28;19910;-46
2023/07/02 08:15:03;;;;;;;;;;;22.50;57.60;;;17.56;80.14;95381.63;4974051;28;20369;-47
2023/07/02 08:17:30;;;;;;;;;;;22.60;57.50;;;17.55;80.06;95383.53;4975291;28;19951;-46
2023/07/02 08:19:57;;;;;;;;;;;22.60;57.20;;;17.66;79.06;95380.53;4954937;28;19914;-46
2023/07/02 08:22:23;;;;;;;;;;;22.70;57.10;;;17.54;78.23;95384.63;4975431;28;19918;-46
2023/07/02 08:24:49;;;;;;;;;;;22.80;56.90;;;17.57;77.94;95392.06;4973742;28;19909;-46
2023/07/02 08:27:19;;;;;;;;;;;22.80;56.70;;;17.60;76.62;95389.88;4971323;28;19914;-46
2023/07/02 08:29:48;;;;;;;;;;;22.80;56.60;;;17.70;79.09;95398.44;4977978;28;20265;-47
2023/07/02 08:32:15;;;;;;;;;;;22.90;56.50;;;17.71;78.83;95397.34;4970263;28;19965;-47
2023/07/02 08:34:40;;;;;;;;;;;22.90;56.30;;;17.66;76.48;95394.78;4971373;28;19945;-48
2023/07/02 08:37:06;;;;;;;;;;;23.00;56.20;;;17.55;78.76;95391.63;4961415;28;19910;-46
2023/07/02 08:39:32;;;;;;;;;;;23.00;55.90;;;17.77;78.55;95395.34;4975686;28;20004;-46
2023/07/02 08:41:57;;;;;;;;;;;23.00;55.80;;;17.75;76.51;95390.22;4968390;28;19918;-45
2023/07/02 08:44:24;;;;;;;;;;;23.10;55.70;;;17.88;78.08;95390.44;4954028;28;19949;-47
2023/07/02 08:46:56;;;;;;;;;;;23.10;55.60;;;17.92;76.09;95391.38;4968247;28;19909;-46
2023/07/02 08:49:22;;;;;;;;;;;23.20;55.50;;;18.06;77.15;95397.41;4969750;28;20012;-49
2023/07/02 08:51:48;;;;;;;;;;;23.30;55.40;;;18.18;77.67;95397.59;4966115;28;20296;-47
2023/07/02 08:54:16;;;;;;;;;;;23.40;55.30;;;18.37;76.52;95399.97;4971001;28;19914;-46
2023/07/02 08:56:42;;;;;;;;;;;23.60;55.20;;;18.35;75.18;95398.69;4966467;28;19914;-46
2023/07/02 08:59:09;;;;;;;;;;;23.90;54.90;;;18.58;74.96;95391.19;4975060;28;19964;-46
2023/07/02 09:01:50;;;;;;;;;;;24.00;54.50;;;18.78;73.58;95398.66;4964196;28;19996;-47
2023/07/02 09:04:23;;;;;;;;;;;24.30;54.40;;;18.95;72.10;95397.81;4974534;28;20336;-49
2023/07/02 09:07:11;;;;;;;;;;;24.50;54.30;;;18.98;72.76;95405.28;4967407;28;19918;-49
2023/07/02 09:09:49;;;;;;;;;;;24.70;54.00;;;18.97;72.33;95395.59;4970629;28;19936;-48
2023/07/02 09:12:41;;;;;;;;;;;25.00;53.30;;;19.54;71.26;95392.50;4986835;28;20048;-47
2023/07/02 09:15:08;;;;;;;;;;;25.50;53.10;;;20.00;71.34;95393.53;4961244;28;20384;-46
2023/07/02 09:17:36;;;;;;;;;;;26.00;52.60;;;20.23;67.49;95395.91;4974334;28;19918;-47
2023/07/02 09:20:07;;;;;;;;;;;26.50;52.20;;;20.66;65.70;95398.25;4944330;28;19936;-46
2023/07/02 09:22:34;;;;;;;;;;;27.00;51.70;;;20.91;65.68;95401.03;4964950;28;19933;-47
2023/07/02 09:25:01;;;;;;;;;;;27.30;51.30;;;21.24;65.91;95390.91;4966248;28;20396;-47
2023/07/02 09:27:53;;;;;;;;;;;27.70;51.20;;;21.69;61.27;95392.00;4968052;28;20357;-46
2023/07/02 09:30:19;;;;;;;;;;;28.20;51.00;;;21.88;59.88;95384.06;4960391;28;19910;-47
2023/07/02 09:32:46;;;;;;;;;;;28.60;50.50;;;22.18;59.22;95392.72;4972981;28;20320;-47
2023/07/02 09:35:12;;;;;;;;;;;29.00;50.20;;;22.27;60.99;95394.50;4966137;28;19914;-47
2023/07/02 09:37:41;;;;;;;;;;;29.30;49.60;;;22.27;59.77;95391.78;4963522;28;20324;-47
2023/07/02 09:40:08;;;;;;;;;;;29.30;49.40;;;22.55;57.80;95383.66;4974384;28;19910;-49
2023/07/02 09:42:38;;;;;;;;;;;29.60;49.00;;;23.23;55.68;95382.78;4968576;28;20396;-47
2023/07/02 09:45:10;;;;;;;;;;;30.20;48.70;;;23.79;57.04;95385.28;4967262;28;20431;-46
2023/07/02 09:47:47;;;;;;;;;;;30.70;48.20;;;24.16;51.20;95391.16;4949146;28;19919;-46
2023/07/02 09:50:15;;;;;;;;;;;31.20;47.40;;;24.71;52.33;95374.78;4959579;28;20009;-47
2023/07/02 09:52:44;;;;;;;;;;;31.60;47.00;;;24.93;52.56;95382.19;4973983;28;20029;-46
2023/07/02 09:55:10;;;;;;;;;;;31.90;46.70;;;25.33;50.29;95380.19;4964162;28;20344;-46
2023/07/02 09:57:35;;;;;;;;;;;32.30;46.40;;;25.38;48.25;95374.44;4973972;28;20331;-47
2023/07/02 10:00:04;;;;;;;;;;;32.60;46.10;;;25.08;50.14;95377.81;4989049;28;19956;-48
2023/07/02 10:02:29;;;;;;;;;;;32.70;45.80;;;25.57;49.49;95373.56;4953801;28;19917;-48
2023/07/02 10:04:56;;;;;;;;;;;32.70;45.70;;;25.64;49.62;95378.38;4973592;28;20397;-49
2023/07/02 10:07:32;;;;;;;;;;;32.90;45.50;;;25.72;46.46;95382.75;4971003;28;19937;-50
2023/07/02 10:09:58;;;;;;;;;;;33.30;44.80;;;25.43;47.18;95371.41;4973805;28;20017;-50
2023/07/02 10:12:29;;;;;;;;;;;33.40;43.80;;;25.43;47.15;95373.34;4969832;28;20017;-47
2023/07/02 10:14:58;;;;;;;;;;;33.20;43.40;;;25.60;49.69;95370.91;4972084;28;19920;-50
2023/07/02 10:17:32;;;;;;;;;;;33.10;43.20;;;25.79;51.30;95372.75;4973233;28;19922;-50
2023/07/02 10:20:08;;;;;;;;;;;33.20;43.30;;;25.66;47.22;95376.81;4946052;28;19914;-48
2023/07/02 10:22:58;;;;;;;;;;;33.40;43.30;;;25.37;49.85;95373.66;4963868;28;19949;-50
2023/07/02 10:25:29;;;;;;;;;;;33.40;43.00;;;25.08;49.65;95383.25;4961316;28;19920;-50
2023/07/02 10:27:55;;;;;;;;;;;33.30;42.60;;;24.88;49.75;95377.06;4967368;28;20254;-50
2023/07/02 10:30:35;;;;;;;;;;;33.30;42.20;;;24.46;50.26;95383.25;4962195;28;19909;-47
2023/07/02 10:33:12;;;;;;;;;;;33.00;41.80;;;24.40;51.04;95389.31;4960924;28;19997;-50
2023/07/02 10:35:41;;;;;;;;;;;32.80;42.60;;;24.39;51.12;95383.09;4963073;28;19917;-51
2023/07/02 10:38:13;;;;;;;;;;;32.50;42.10;;;24.40;53.13;95379.22;4964625;28;19917;-49
2023/07/02 10:40:39;;;;;;;;;;;32.40;42.10;;;24.67;51.48;95377.44;4973371;28;19948;-48
2023/07/02 10:43:07;;;;;;;;;;;32.50;42.20;;;24.95;51.67;95381.84;4963997;28;19910;-51
2023/07/02 10:45:35;;;;;;;;;;;32.70;42.30;;;24.92;51.77;95377.91;4970051;28;19910;-50
2023/07/02 10:48:04;;;;;;;;;;;32.80;42.10;;;25.08;50.75;95377.03;4973428;28;19910;-53
2023/07/02 10:50:32;;;;;;;;;;;33.00;42.00;;;25.42;47.88;95378.03;4958645;28;19910;-50
2023/07/02 10:52:58;;;;;;;;;;;33.30;41.80;;;25.80;50.39;95377.03;4972860;28;19910;-49
2023/07/02 10:55:27;;;;;;;;;;;33.50;41.30;;;26.20;48.68;95381.16;4961689;28;19922;-50
2023/07/02 10:58:10;;;;;;;;;;;33.80;41.10;;;26.56;48.57;95380.81;4972396;28;27805;-52
2023/07/02 11:00:50;;;;;;;;;;;34.30;41.00;;;26.57;43.76;95380.44;4947298;28;19913;-47
2023/07/02 11:03:24;;;;;;;;;;;34.90;40.20;;;26.02;44.92;95374.66;4968764;28;19914;-50
2023/07/02 11:05:51;;;;;;;;;;;35.20;38.70;;;26.22;44.38;95367.91;4972106;28;19918;-47
2023/07/02 11:08:19;;;;;;;;;;;35.50;38.40;;;26.40;46.58;95370.84;4971043;28;20004;-51
2023/07/02 11:10:45;;;;;;;;;;;35.70;37.60;;;26.30;44.54;95364.13;4973021;28;19924;-50
2023/07/02 11:13:20;;;;;;;;;;;35.60;37.90;;;26.30;46.07;95374.25;4962840;28;19909;-49
2023/07/02 11:15:46;;;;;;;;;;;35.20;37.70;;;26.64;44.59;95366.09;4972087;28;20403;-47